Metelen UL

DE-0389 · North Rhine-Westphalia, Alemanha

História da METAR DE-0389 · Metelen UL

Abaixo você vê METARs dos últimos dias. Selecione um ano para navegar pelos METARs mais antigos, a partir do ano 2007.

19 de abril de 2024

Hora Código Clima Temp. Visibilidade Tecto Vento METAR/SPECI
19:20
M
8 °C 10 km+ 2.200 ft 310° 310° 12 kt METAR EDDG 191720Z AUTO 31012KT 270V330 9999 -RA BKN022 BKN027 BKN038 08/04 Q1006 RERA TEMPO 31015G25KT
18:50
V
9 °C 10 km+ 3.200 ft 300° 300° 13 kt METAR EDDG 191650Z AUTO 30013KT 270V330 9999 -DZ SCT024 BKN032 BKN043 09/04 Q1006 TEMPO 30015G25KT
18:20
V
9 °C 10 km+ 4.600 ft 300° 300° 18 - 28 kt METAR EDDG 191620Z AUTO 30018G28KT 270V330 9999 -DZ FEW032 SCT039 BKN046 09/03 Q1005 NOSIG
17:50
V
10 °C 10 km+ - 310° 310° 12 kt METAR EDDG 191550Z AUTO 31012KT 270V340 9999 FEW026 SCT046 10/04 Q1005 TEMPO 31015G25KT
17:20
V
9 °C 10 km+ 3.600 ft 300° 300° 18 - 28 kt METAR EDDG 191520Z AUTO 30018G28KT 270V330 9999 SCT027 BKN036 09/04 Q1005 NOSIG
16:50
V
10 °C 10 km+ - 300° 300° 16 kt METAR EDDG 191450Z AUTO 30016KT 270V330 9999 FEW028 10/04 Q1005 RESHRA TEMPO 30015G25KT
16:20
V
9 °C 10 km+ - 300° 300° 16 - 27 kt METAR EDDG 191420Z AUTO 30016G27KT 270V330 9999 SHRA FEW022 SCT046 FEW///CB 09/04 Q1005 BECMG NSW
15:50
M
9 °C 10 km+ 1.900 ft 290° 290° 12 kt METAR EDDG 191350Z AUTO 29012KT 260V320 9999 BKN019 09/06 Q1004 TEMPO 30015G30KT SHRA BKN020CB
15:20
V
9 °C 10 km+ 4.500 ft 310° 310° 10 kt METAR EDDG 191320Z AUTO 31010KT 270V340 9999 FEW024 BKN045 09/06 Q1004 RESHRA TEMPO 31015G25KT
14:50
V
7 °C 10 km+ 3.200 ft 310° 310° 17 - 35 kt METAR EDDG 191250Z AUTO 31017G35KT 280V340 9999 SHRA SCT017 BKN032 BKN041 FEW///CB 07/05 Q1005 TEMPO NSW
14:20
V
9 °C 10 km+ - 250° 250° 11 kt METAR EDDG 191220Z AUTO 25011KT 9999 FEW036 09/07 Q1004 TEMPO 30015G30KT 4000 SHRA BKN020CB
13:50
V
7 °C 10 km+ 3.400 ft 280° 280° 14 - 24 kt METAR EDDG 191150Z AUTO 28014G24KT 250V310 9999 -RA FEW015 BKN034 OVC044 07/05 Q1004 RESHRA TEMPO SHRA BKN020CB
13:20
V
11 °C 10 km+ 3.400 ft 260° 260° 15 kt METAR EDDG 191120Z AUTO 26015KT 9999 -RA SCT026 BKN034 BKN047 11/06 Q1004 TEMPO 23015G25KT 4000 SHRA BKN020CB
12:50
M
11 °C 10 km+ 2.600 ft 280° 280° 10 kt METAR EDDG 191050Z AUTO 28010KT 250V320 9999 BKN026 11/06 Q1004 NOSIG
12:20
M
10 °C 10 km+ 2.200 ft 280° 280° 11 kt METAR EDDG 191020Z AUTO 28011KT 9999 BKN022 BKN030 10/06 Q1005 NOSIG
11:50
V
10 °C 10 km+ - 290° 290° 9 kt METAR EDDG 190950Z AUTO 29009KT 9999 SCT021 10/06 Q1005 NOSIG
11:20
M
10 °C 10 km+ 2.100 ft 290° 290° 11 kt METAR EDDG 190920Z AUTO 29011KT 250V320 9999 BKN021 10/06 Q1005 NOSIG
10:50
M
10 °C 10 km+ 1.900 ft 290° 290° 10 kt METAR EDDG 190850Z AUTO 29010KT 260V330 9999 SCT014 BKN019 10/07 Q1005 TEMPO BKN014
10:20
M
9 °C 10 km+ 1.600 ft 260° 260° 9 kt METAR EDDG 190820Z AUTO 26009KT 9999 SCT010 BKN016 OVC026 09/07 Q1005 TEMPO BKN012
09:50
I
8 °C 10 km+ 800 ft 260° 260° 10 kt METAR EDDG 190750Z AUTO 26010KT 9999 -DZ BKN008 BKN015 OVC029 08/07 Q1006 TEMPO 23015G25KT 4000 SHRA BKN015TCU
09:20
I
8 °C 10 km+ 700 ft 250° 250° 11 kt METAR EDDG 190720Z AUTO 25011KT 9999 BKN007 08/07 Q1006 RERA TEMPO 23015G25KT 4000 SHRA BKN015TCU
08:50
I
7 °C 3,5 km 600 ft 250° 250° 12 kt METAR EDDG 190650Z AUTO 25012KT 3500 RADZ BR BKN006 07/06 Q1006 BECMG 8000 NSW BKN012
08:20
I
7 °C 2,9 km 700 ft 240° 240° 12 kt METAR EDDG 190620Z AUTO 24012KT 2900 -RADZ BR BKN007 07/06 Q1006 RERA TEMPO 23015G25KT 4000 SHRA BKN010TCU
07:50
I
7 °C 2,4 km 700 ft 230° 230° 14 kt METAR EDDG 190550Z AUTO 23014KT 2400 RADZ BR BKN007 07/06 Q1006 TEMPO 23015G25KT 6000 NSW
07:20
I
7 °C 5 km 800 ft 230° 230° 15 - 25 kt METAR EDDG 190520Z AUTO 23015G25KT 5000 -RADZ BR BKN008 07/05 Q1006 REDZ TEMPO 3500 SHRA BKN004TCU
06:50
I
6 °C 5 km 900 ft 220° 220° 13 kt METAR EDDG 190450Z AUTO 22013KT 190V250 5000 -DZ BR BKN009 06/05 Q1007 TEMPO 3500 SHRA
06:20
M
6 °C 10 km+ 1.000 ft 210° 210° 14 kt METAR EDDG 190420Z AUTO 21014KT 9999 -RADZ BKN010 BKN014 06/05 Q1007 TEMPO 3500 SHRA BKN007TCU
05:50
M
6 °C 10 km+ 1.200 ft 210° 210° 12 kt METAR EDDG 190350Z AUTO 21012KT 180V250 9999 -RA BKN012 BKN017 BKN024 06/05 Q1008 TEMPO BKN008
05:20
M
6 °C 10 km+ 1.400 ft 220° 220° 10 kt METAR EDDG 190320Z AUTO 22010KT 170V250 9999 -RA BKN014 OVC019 06/04 Q1009 TEMPO BKN008
04:50
M
6 °C 10 km+ 1.600 ft 210° 210° 12 kt METAR EDDG 190250Z AUTO 21012KT 180V240 9999 -RA BKN016 OVC020 06/04 Q1010 TEMPO RA BKN014
04:20
M
6 °C 10 km+ 1.700 ft 220° 220° 12 kt METAR EDDG 190220Z AUTO 22012KT 9999 -RA BKN017 06/04 Q1011 RERA TEMPO BKN014
03:50
M
6 °C 10 km+ 1.600 ft 220° 220° 11 kt METAR EDDG 190150Z AUTO 22011KT 180V250 9999 -RA BKN016 OVC020 06/04 Q1011 TEMPO RA BKN014
03:20
M
6 °C 10 km+ 2.000 ft 210° 210° 11 kt METAR EDDG 190120Z AUTO 21011KT 170V240 9999 -RA BKN020 06/04 Q1012 TEMPO RA BKN014
02:50
M
7 °C 10 km+ 2.300 ft 220° 220° 10 kt METAR EDDG 190050Z AUTO 22010KT 190V250 9999 -RA BKN023 OVC035 07/03 Q1013 TEMPO RA
02:20
V
7 °C 10 km+ 3.800 ft 220° 220° 7 kt METAR EDDG 190020Z AUTO 22007KT 190V250 9999 -RA FEW028 BKN038 OVC048 07/03 Q1013 TEMPO RA
01:50
V
7 °C 10 km+ - 210° 210° 8 kt METAR EDDG 182350Z AUTO 21008KT 170V240 9999 FEW047 07/02 Q1014 TEMPO RA
01:20
V
8 °C 10 km+ - 220° 220° 7 kt METAR EDDG 182320Z AUTO 22007KT 180V240 CAVOK 08/02 Q1014 NOSIG
00:50
V
8 °C 10 km+ - 220° 220° 7 kt METAR EDDG 182250Z AUTO 22007KT 200V260 CAVOK 08/02 Q1015 NOSIG
00:20
V
8 °C 10 km+ - 230° 230° 7 kt METAR EDDG 182220Z AUTO 23007KT 190V250 CAVOK 08/03 Q1016 NOSIG

18 de abril de 2024

Hora Código Clima Temp. Visibilidade Tecto Vento METAR/SPECI
23:50
V
8 °C 10 km+ - 230° 230° 6 kt METAR EDDG 182150Z AUTO 23006KT 9999 FEW046 08/02 Q1016 NOSIG
23:20
V
8 °C 10 km+ - 240° 240° 5 kt METAR EDDG 182120Z AUTO 24005KT 9999 FEW046 08/03 Q1016 NOSIG
22:50
V
8 °C 10 km+ 3.700 ft 250° 250° 3 kt METAR EDDG 182050Z AUTO 25003KT 9999 FEW031 BKN037 08/03 Q1017 NOSIG
22:20
V
8 °C 10 km+ 3.200 ft 280° 280° 5 kt METAR EDDG 182020Z AUTO 28005KT 260V330 9999 BKN032 BKN040 08/03 Q1017 NOSIG
21:50
V
8 °C 10 km+ 3.500 ft 300° 300° 3 kt METAR EDDG 181950Z AUTO 30003KT 9999 BKN035 08/03 Q1017 NOSIG
21:20
V
9 °C 10 km+ 3.600 ft 290° 290° 8 kt METAR EDDG 181920Z AUTO 29008KT 9999 BKN036 09/03 Q1017 NOSIG
20:50
V
9 °C 10 km+ - 290° 290° 7 kt METAR EDDG 181850Z AUTO 29007KT 9999 FEW034 09/03 Q1017 NOSIG
20:20
V
9 °C 10 km+ - 280° 280° 6 kt METAR EDDG 181820Z AUTO 28006KT 9999 FEW035 SCT045 09/03 Q1017 NOSIG
19:50
V
10 °C 10 km+ - 290° 290° 8 kt METAR EDDG 181750Z AUTO 29008KT 260V320 9999 FEW036 10/02 Q1017 NOSIG
19:20
V
10 °C 10 km+ - 270° 270° 10 kt METAR EDDG 181720Z AUTO 27010KT 9999 FEW040 10/03 Q1017 NOSIG
18:50
V
10 °C 10 km+ - 270° 270° 9 kt METAR EDDG 181650Z AUTO 27009KT CAVOK 10/03 Q1017 NOSIG
18:20
V
10 °C 10 km+ - 290° 290° 9 kt METAR EDDG 181620Z AUTO 29009KT 260V340 9999 -SHRA SCT037 SCT045 FEW///TCU 10/03 Q1018 NOSIG
17:50
V
11 °C 10 km+ - 260° 260° 11 kt METAR EDDG 181550Z AUTO 26011KT 9999 FEW039 11/02 Q1018 NOSIG
17:20
V
11 °C 10 km+ - 260° 260° 11 kt METAR EDDG 181520Z AUTO 26011KT 9999 FEW040 11/02 Q1018
16:50
V
11 °C 10 km+ - 260° 260° 13 kt METAR EDDG 181450Z AUTO 26013KT 9999 FEW043 11/02 Q1018 NOSIG
16:20
V
11 °C 10 km+ - 270° 270° 11 kt METAR EDDG 181420Z AUTO 27011KT 250V310 9999 SCT046 11/01 Q1018 NOSIG
15:50
V
11 °C 10 km+ - 280° 280° 7 kt METAR EDDG 181350Z AUTO 28007KT 230V020 9999 SCT047 11/01 Q1018 NOSIG
15:20
V
11 °C 10 km+ 4.800 ft 260° 260° 7 kt METAR EDDG 181320Z AUTO 26007KT 190V300 9999 BKN048 11/01 Q1018 NOSIG
14:50
V
11 °C 10 km+ - 310° 310° 7 kt METAR EDDG 181250Z AUTO 31007KT 260V350 9999 SCT044 11/01 Q1018 NOSIG
14:20
V
12 °C 10 km+ - 260° 260° 11 kt METAR EDDG 181220Z AUTO 26011KT 9999 SCT048 12/01 Q1018 NOSIG
13:50
V
12 °C 10 km+ - 270° 270° 7 kt METAR EDDG 181150Z AUTO 27007KT 230V310 9999 SCT048 12/00 Q1018 NOSIG
13:20
V
11 °C 10 km+ - 290° 290° 7 kt METAR EDDG 181120Z AUTO 29007KT 250V330 9999 SCT044 11/01 Q1018 NOSIG
12:50
V
10 °C 10 km+ - 290° 290° 8 kt METAR EDDG 181050Z AUTO 29008KT 240V330 9999 SCT042 10/00 Q1018 NOSIG
12:20
V
11 °C 10 km+ - 300° 300° 5 kt METAR EDDG 181020Z AUTO 30005KT 220V010 9999 SCT036 SCT047 11/02 Q1018 NOSIG
11:50
V
9 °C 10 km+ 4.500 ft 290° 290° 7 kt METAR EDDG 180950Z AUTO 29007KT 270V340 9999 SCT030 BKN045 09/02 Q1018 NOSIG
11:20
V
9 °C 10 km+ 3.900 ft 300° 300° 6 kt METAR EDDG 180920Z AUTO 30006KT 260V330 9999 SCT028 BKN039 09/02 Q1018 NOSIG
10:50
V
9 °C 10 km+ - Var Var 4 kt METAR EDDG 180850Z AUTO VRB04KT 9999 FEW026 09/02 Q1018 NOSIG
10:20
V
8 °C 10 km+ - 340° 340° 5 kt METAR EDDG 180820Z AUTO 34005KT 300V010 9999 FEW041 08/03 Q1018 NOSIG
09:50
V
8 °C 10 km+ - 340° 340° 5 kt METAR EDDG 180750Z AUTO 34005KT 240V020 CAVOK 08/03 Q1017 NOSIG
09:20
V
6 °C 10 km+ - 330° 330° 5 kt METAR EDDG 180720Z AUTO 33005KT 290V360 9999 FEW045 06/02 Q1017 NOSIG
08:50
V
6 °C 10 km+ - Var Var 2 kt METAR EDDG 180650Z AUTO VRB02KT CAVOK 06/02 Q1017 NOSIG
08:20
V
4 °C 10 km+ 4.800 ft 320° 320° 5 kt METAR EDDG 180620Z AUTO 32005KT 9999 FEW024 BKN048 04/02 Q1017 NOSIG
07:50
V
4 °C 10 km+ 4.600 ft 320° 320° 3 kt METAR EDDG 180550Z AUTO 32003KT 280V350 9999 OVC046 04/02 Q1017 NOSIG
07:20
V
3 °C 10 km+ 4.000 ft 320° 320° 3 kt METAR EDDG 180520Z AUTO 32003KT 280V340 9999 BKN040 BKN046 03/02 Q1016 NOSIG
06:50
V
3 °C 10 km+ - 330° 330° 5 kt METAR EDDG 180450Z AUTO 33005KT 9999 FEW036 SCT046 03/01 Q1016 NOSIG
06:20
V
3 °C 10 km+ 3.500 ft 330° 330° 4 kt METAR EDDG 180420Z AUTO 33004KT 9999 BKN035 03/01 Q1015 NOSIG
05:50
V
3 °C 10 km+ 3.700 ft 350° 350° 5 kt METAR EDDG 180350Z AUTO 35005KT 9999 BKN037 03/01 Q1015 NOSIG
05:20
V
3 °C 10 km+ 3.500 ft 340° 340° 5 kt METAR EDDG 180320Z AUTO 34005KT 9999 BKN035 03/02 Q1015 NOSIG
04:50
V
3 °C 10 km+ 3.300 ft 340° 340° 6 kt METAR EDDG 180250Z AUTO 34006KT 9999 BKN033 03/02 Q1014 NOSIG
04:20
V
3 °C 10 km+ - 340° 340° 5 kt METAR EDDG 180220Z AUTO 34005KT 9999 FEW033 03/02 Q1014 NOSIG
03:50
V
4 °C 10 km+ 4.700 ft 340° 340° 4 kt METAR EDDG 180150Z AUTO 34004KT 9999 SCT025 SCT034 BKN047 04/02 Q1014 NOSIG
03:20
M
5 °C 10 km+ 2.500 ft 340° 340° 4 kt METAR EDDG 180120Z AUTO 34004KT 9999 BKN025 BKN031 BKN045 05/03 Q1014 NOSIG
02:50
V
5 °C 10 km+ 3.100 ft 330° 330° 3 kt METAR EDDG 180050Z AUTO 33003KT 9999 BKN031 BKN042 05/03 Q1014 NOSIG
02:20
V
5 °C 10 km+ - 330° 330° 3 kt METAR EDDG 180020Z AUTO 33003KT 9999 FEW029 05/03 Q1013 NOSIG
01:50
V
5 °C 10 km+ - 320° 320° 3 kt METAR EDDG 172350Z AUTO 32003KT 9999 FEW027 SCT045 05/03 Q1013 NOSIG
01:20
V
5 °C 10 km+ 3.200 ft 320° 320° 4 kt METAR EDDG 172320Z AUTO 32004KT 290V350 9999 -RA SCT018 BKN032 BKN045 05/03 Q1013 NOSIG
00:50
V
5 °C 10 km+ 3.600 ft 010° 010° 5 kt METAR EDDG 172250Z AUTO 01005KT 9999 -RA SCT021 BKN036 OVC042 05/03 Q1013 NOSIG
00:20
V
5 °C 10 km+ 3.900 ft 340° 340° 6 kt METAR EDDG 172220Z AUTO 34006KT 310V010 9999 SCT029 BKN039 OVC046 05/03 Q1013 NOSIG

17 de abril de 2024

Hora Código Clima Temp. Visibilidade Tecto Vento METAR/SPECI
23:50
V
5 °C 10 km+ 4.400 ft 350° 350° 4 kt METAR EDDG 172150Z AUTO 35004KT 320V020 9999 OVC044 05/03 Q1012 NOSIG
23:20
V
5 °C 10 km+ 4.300 ft 310° 310° 4 kt METAR EDDG 172120Z AUTO 31004KT 280V340 9999 OVC043 05/03 Q1012 NOSIG
22:50
V
4 °C 10 km+ - 310° 310° 2 kt METAR EDDG 172050Z AUTO 31002KT 9999 SCT043 04/03 Q1012 NOSIG
22:20
V
4 °C 10 km+ - 330° 330° 3 kt METAR EDDG 172020Z AUTO 33003KT 9999 FEW040 04/02 Q1012 NOSIG
21:50
V
4 °C 10 km+ - 320° 320° 4 kt METAR EDDG 171950Z AUTO 32004KT 9999 FEW034 04/02 Q1012 NOSIG
21:20
V
5 °C 10 km+ - 300° 300° 3 kt METAR EDDG 171920Z AUTO 30003KT 9999 FEW044 05/03 Q1011 NOSIG
20:50
V
5 °C 10 km+ - 280° 280° 3 kt METAR EDDG 171850Z AUTO 28003KT 9999 FEW046 05/03 Q1011 NOSIG
20:20
V
6 °C 10 km+ - 300° 300° 5 kt METAR EDDG 171820Z AUTO 30005KT 280V340 CAVOK 06/03 Q1011 NOSIG
19:50
V
7 °C 10 km+ - 290° 290° 5 kt METAR EDDG 171750Z AUTO 29005KT 260V330 9999 FEW037 07/03 Q1010 NOSIG
19:20
V
7 °C 10 km+ 3.800 ft 270° 270° 7 kt METAR EDDG 171720Z AUTO 27007KT 9999 -SHRA SCT025 BKN038 FEW///CB 07/03 Q1010 NOSIG
18:50
V
8 °C 10 km+ 3.500 ft 330° 330° 5 kt METAR EDDG 171650Z AUTO 33005KT 260V020 9999 -SHRA SCT026 BKN035 BKN046 FEW///CB 08/02 Q1010 RESHRA TEMPO SHRA
18:20
V
8 °C 10 km+ - 360° 360° 7 kt METAR EDDG 171620Z AUTO 36007KT 9999 SHRA FEW029 SCT042 FEW///CB 08/03 Q1010 TEMPO NSW
17:50
V
8 °C 10 km+ - 320° 320° 5 kt METAR EDDG 171550Z AUTO 32005KT 270V350 9999 -SHRA SCT028 FEW///TCU 08/03 Q1010 TEMPO SHRA BKN015CB
17:20
V
10 °C 10 km+ - 330° 330° 8 kt METAR EDDG 171520Z AUTO 33008KT 280V350 9999 FEW028 10/02 Q1009 NOSIG
16:50
V
9 °C 10 km+ 3.900 ft 350° 350° 6 kt METAR EDDG 171450Z AUTO 35006KT 310V020 9999 SCT027 BKN039 09/03 Q1009 TEMPO SHRA BKN015CB
16:20
V
10 °C 10 km+ - 350° 350° 7 kt METAR EDDG 171420Z AUTO 35007KT 280V040 9999 SCT024 10/03 Q1010 NOSIG
15:50
V
9 °C 10 km+ 4.900 ft 310° 310° 7 kt METAR EDDG 171350Z AUTO 31007KT 270V350 9999 SCT018 SCT040 BKN049 09/04 Q1010 TEMPO SHRA BKN015CB
15:20
V
7 °C 10 km+ - 330° 330° 5 kt METAR EDDG 171320Z AUTO 33005KT 280V360 9999 SCT017 SCT038 07/03 Q1010 TEMPO SHRA BKN015CB
14:50
V
7 °C 10 km+ - 340° 340° 8 kt METAR EDDG 171250Z AUTO 34008KT 310V020 9999 -SHRA VCTS SCT020 SCT042 FEW///CB 07/03 Q1010 TEMPO SHRA
14:20
M
9 °C 10 km+ 2.800 ft 350° 350° 12 kt METAR EDDG 171220Z AUTO 35012KT 9999 VCTS SCT020 BKN028 FEW///CB 09/04 Q1010 TEMPO SHRA BKN015CB
13:50
V
9 °C 10 km+ - 320° 320° 10 kt METAR EDDG 171150Z AUTO 32010KT 290V350 9999 FEW021 SCT033 09/03 Q1010 TEMPO SHRA BKN015CB
13:20
V
8 °C 10 km+ 4.000 ft 320° 320° 12 kt METAR EDDG 171120Z AUTO 32012KT 290V350 9999 SCT019 SCT027 BKN040 08/03 Q1010 TEMPO SHRA BKN015CB
12:50
M
8 °C 10 km+ 2.900 ft 320° 320° 7 kt METAR EDDG 171050Z AUTO 32007KT 290V360 9999 SCT020 BKN029 BKN037 08/04 Q1010 TEMPO SHRA BKN015CB
12:20
M
8 °C 10 km+ 2.900 ft 310° 310° 8 kt METAR EDDG 171020Z AUTO 31008KT 280V020 9999 SCT018 BKN029 BKN034 08/04 Q1010 TEMPO SHRA BKN015CB
11:50
M
7 °C 10 km+ 2.900 ft 310° 310° 7 kt METAR EDDG 170950Z AUTO 31007KT 270V340 9999 FEW012 SCT018 OVC029 07/04 Q1010 TEMPO SHRA BKN020CB
11:20
M
7 °C 10 km+ 1.800 ft 290° 290° 5 kt METAR EDDG 170920Z AUTO 29005KT 250V340 9999 FEW006 BKN018 OVC028 07/05 Q1010 NOSIG
10:50
I
6 °C 7 km 800 ft 270° 270° 3 kt METAR EDDG 170850Z AUTO 27003KT 240V310 7000 -DZ BKN008 BKN012 OVC017 06/05 Q1010 RERA
10:20
M
6 °C 7 km 1.900 ft 260° 260° 9 kt METAR EDDG 170820Z AUTO 26009KT 7000 -RA SCT007 BKN019 OVC026 06/04 Q1010 TEMPO SCT010
09:50
I
6 °C 10 km+ 700 ft 260° 260° 8 kt METAR EDDG 170750Z AUTO 26008KT 9999 BKN007 BKN022 OVC036 06/04 Q1010 BECMG BKN012
09:20
I
6 °C 10 km+ 800 ft 280° 280° 6 kt METAR EDDG 170720Z AUTO 28006KT 9999 -RA BKN008 BKN024 OVC047 06/04 Q1010 BECMG BKN012
08:50
I
5 °C 10 km+ 700 ft 280° 280° 9 kt METAR EDDG 170650Z AUTO 28009KT 9999 -DZ BKN007 BKN029 OVC038 05/04 Q1010 BECMG BKN010
08:20
M
5 °C 10 km+ 2.000 ft 270° 270° 6 kt METAR EDDG 170620Z AUTO 27006KT 9999 BKN020 BKN042 05/04 Q1010 NOSIG
07:50
V
4 °C 10 km+ - 260° 260° 4 kt METAR EDDG 170550Z AUTO 26004KT 9999 SCT021 04/03 Q1010 TEMPO SHRA BKN015TCU
Relatar uma mudança